sensor_id;sensor_type;location;lat;lon;timestamp;temperature;humidity
4399;DHT22;2213;49.720;7.296;2023-05-07T00:00:06;13.30;99.90
4399;DHT22;2213;49.720;7.296;2023-05-07T00:02:38;13.20;99.90
4399;DHT22;2213;49.720;7.296;2023-05-07T00:05:10;13.20;99.90
4399;DHT22;2213;49.720;7.296;2023-05-07T00:07:40;13.20;99.90
4399;DHT22;2213;49.720;7.296;2023-05-07T00:10:10;13.10;99.90
4399;DHT22;2213;49.720;7.296;2023-05-07T00:12:40;13.10;99.90
4399;DHT22;2213;49.720;7.296;2023-05-07T00:15:09;13.10;99.90
4399;DHT22;2213;49.720;7.296;2023-05-07T00:17:38;13.00;99.90
4399;DHT22;2213;49.720;7.296;2023-05-07T00:20:07;13.00;99.90
4399;DHT22;2213;49.720;7.296;2023-05-07T00:22:39;13.00;99.90
4399;DHT22;2213;49.720;7.296;2023-05-07T00:25:09;13.00;99.90
4399;DHT22;2213;49.720;7.296;2023-05-07T00:27:38;13.00;99.90
4399;DHT22;2213;49.720;7.296;2023-05-07T00:30:08;12.90;99.90
4399;DHT22;2213;49.720;7.296;2023-05-07T00:32:38;12.90;99.90
4399;DHT22;2213;49.720;7.296;2023-05-07T00:35:07;12.90;99.90
4399;DHT22;2213;49.720;7.296;2023-05-07T00:37:38;12.90;99.90
4399;DHT22;2213;49.720;7.296;2023-05-07T00:40:08;12.80;99.90
4399;DHT22;2213;49.720;7.296;2023-05-07T00:42:37;12.80;99.90
4399;DHT22;2213;49.720;7.296;2023-05-07T00:45:07;12.70;99.90
4399;DHT22;2213;49.720;7.296;2023-05-07T00:47:36;12.70;99.90
4399;DHT22;2213;49.720;7.296;2023-05-07T00:50:06;12.70;99.90
4399;DHT22;2213;49.720;7.296;2023-05-07T00:52:39;12.60;99.90
4399;DHT22;2213;49.720;7.296;2023-05-07T00:55:09;12.60;99.90
4399;DHT22;2213;49.720;7.296;2023-05-07T00:57:40;12.60;99.90
4399;DHT22;2213;49.720;7.296;2023-05-07T01:00:10;12.60;99.90
4399;DHT22;2213;49.720;7.296;2023-05-07T01:02:40;12.50;99.90
4399;DHT22;2213;49.720;7.296;2023-05-07T01:05:13;12.50;99.90
4399;DHT22;2213;49.720;7.296;2023-05-07T01:07:45;12.40;99.90
4399;DHT22;2213;49.720;7.296;2023-05-07T01:10:15;12.50;99.90
4399;DHT22;2213;49.720;7.296;2023-05-07T01:12:44;12.40;99.90
4399;DHT22;2213;49.720;7.296;2023-05-07T01:15:16;12.40;99.90
4399;DHT22;2213;49.720;7.296;2023-05-07T01:17:45;12.40;99.90
4399;DHT22;2213;49.720;7.296;2023-05-07T01:20:14;12.30;99.90
4399;DHT22;2213;49.720;7.296;2023-05-07T01:22:45;12.30;99.90
4399;DHT22;2213;49.720;7.296;2023-05-07T01:25:14;12.30;99.90
4399;DHT22;2213;49.720;7.296;2023-05-07T01:27:45;12.30;99.90
4399;DHT22;2213;49.720;7.296;2023-05-07T01:30:14;12.30;99.90
4399;DHT22;2213;49.720;7.296;2023-05-07T01:32:49;12.30;99.90
4399;DHT22;2213;49.720;7.296;2023-05-07T01:35:24;12.30;99.90
4399;DHT22;2213;49.720;7.296;2023-05-07T01:37:59;12.20;99.90
4399;DHT22;2213;49.720;7.296;2023-05-07T01:40:31;12.30;99.90
4399;DHT22;2213;49.720;7.296;2023-05-07T01:43:02;12.30;99.90
4399;DHT22;2213;49.720;7.296;2023-05-07T01:45:31;12.20;99.90
4399;DHT22;2213;49.720;7.296;2023-05-07T01:48:02;12.20;99.90
4399;DHT22;2213;49.720;7.296;2023-05-07T01:50:32;12.10;99.90
4399;DHT22;2213;49.720;7.296;2023-05-07T01:53:03;12.10;99.90
4399;DHT22;2213;49.720;7.296;2023-05-07T01:55:32;12.00;99.90
4399;DHT22;2213;49.720;7.296;2023-05-07T01:58:03;12.00;99.90
4399;DHT22;2213;49.720;7.296;2023-05-07T02:00:32;12.00;99.90
4399;DHT22;2213;49.720;7.296;2023-05-07T02:03:01;12.00;99.90
4399;DHT22;2213;49.720;7.296;2023-05-07T02:05:30;12.00;99.90
4399;DHT22;2213;49.720;7.296;2023-05-07T02:07:59;12.00;99.90
4399;DHT22;2213;49.720;7.296;2023-05-07T02:10:30;12.00;99.90
4399;DHT22;2213;49.720;7.296;2023-05-07T02:12:58;12.00;99.90
4399;DHT22;2213;49.720;7.296;2023-05-07T02:15:28;12.00;99.90
4399;DHT22;2213;49.720;7.296;2023-05-07T02:18:01;12.00;99.90
4399;DHT22;2213;49.720;7.296;2023-05-07T02:20:31;12.10;99.90
4399;DHT22;2213;49.720;7.296;2023-05-07T02:23:00;12.00;99.90
4399;DHT22;2213;49.720;7.296;2023-05-07T02:25:29;12.00;99.90
4399;DHT22;2213;49.720;7.296;2023-05-07T02:27:59;12.00;99.90
4399;DHT22;2213;49.720;7.296;2023-05-07T02:30:29;12.00;99.90
4399;DHT22;2213;49.720;7.296;2023-05-07T02:32:58;12.00;99.90
4399;DHT22;2213;49.720;7.296;2023-05-07T02:35:26;12.00;99.90
4399;DHT22;2213;49.720;7.296;2023-05-07T02:37:55;12.00;99.90
4399;DHT22;2213;49.720;7.296;2023-05-07T02:40:23;11.90;99.90
4399;DHT22;2213;49.720;7.296;2023-05-07T02:42:54;12.00;99.90
4399;DHT22;2213;49.720;7.296;2023-05-07T02:45:23;11.90;99.90
4399;DHT22;2213;49.720;7.296;2023-05-07T02:47:52;11.90;99.90
4399;DHT22;2213;49.720;7.296;2023-05-07T02:50:21;11.90;99.90
4399;DHT22;2213;49.720;7.296;2023-05-07T02:52:49;11.90;99.90
4399;DHT22;2213;49.720;7.296;2023-05-07T02:55:18;11.80;99.90
4399;DHT22;2213;49.720;7.296;2023-05-07T02:57:46;11.80;99.90
4399;DHT22;2213;49.720;7.296;2023-05-07T03:00:19;11.80;99.90
4399;DHT22;2213;49.720;7.296;2023-05-07T03:02:48;11.80;99.90
4399;DHT22;2213;49.720;7.296;2023-05-07T03:05:17;11.70;99.90
4399;DHT22;2213;49.720;7.296;2023-05-07T03:07:46;11.70;99.90
4399;DHT22;2213;49.720;7.296;2023-05-07T03:10:14;11.70;99.90
4399;DHT22;2213;49.720;7.296;2023-05-07T03:12:42;11.70;99.90
4399;DHT22;2213;49.720;7.296;2023-05-07T03:15:12;11.70;99.90
4399;DHT22;2213;49.720;7.296;2023-05-07T03:17:41;11.60;99.90
4399;DHT22;2213;49.720;7.296;2023-05-07T03:20:11;11.60;99.90
4399;DHT22;2213;49.720;7.296;2023-05-07T03:22:41;11.60;99.90
4399;DHT22;2213;49.720;7.296;2023-05-07T03:25:10;11.60;99.90
4399;DHT22;2213;49.720;7.296;2023-05-07T03:27:39;11.60;99.90
4399;DHT22;2213;49.720;7.296;2023-05-07T03:30:09;11.60;99.90
4399;DHT22;2213;49.720;7.296;2023-05-07T03:32:42;11.50;99.90
4399;DHT22;2213;49.720;7.296;2023-05-07T03:35:11;11.50;99.90
4399;DHT22;2213;49.720;7.296;2023-05-07T03:37:40;11.40;99.90
4399;DHT22;2213;49.720;7.296;2023-05-07T03:40:09;11.50;99.90
4399;DHT22;2213;49.720;7.296;2023-05-07T03:42:39;11.40;99.90
4399;DHT22;2213;49.720;7.296;2023-05-07T03:45:10;11.30;99.90
4399;DHT22;2213;49.720;7.296;2023-05-07T03:47:38;11.30;99.90
4399;DHT22;2213;49.720;7.296;2023-05-07T03:50:09;11.30;99.90
4399;DHT22;2213;49.720;7.296;2023-05-07T03:52:39;11.30;99.90
4399;DHT22;2213;49.720;7.296;2023-05-07T03:55:09;11.30;99.90
4399;DHT22;2213;49.720;7.296;2023-05-07T03:57:38;11.30;99.90
4399;DHT22;2213;49.720;7.296;2023-05-07T04:00:07;11.20;99.90
4399;DHT22;2213;49.720;7.296;2023-05-07T04:02:37;11.20;99.90
4399;DHT22;2213;49.720;7.296;2023-05-07T04:05:06;11.20;99.90
4399;DHT22;2213;49.720;7.296;2023-05-07T04:07:37;11.20;99.90
4399;DHT22;2213;49.720;7.296;2023-05-07T04:10:06;11.20;99.90
4399;DHT22;2213;49.720;7.296;2023-05-07T04:12:35;11.20;99.90
4399;DHT22;2213;49.720;7.296;2023-05-07T04:15:05;11.20;99.90
4399;DHT22;2213;49.720;7.296;2023-05-07T04:17:37;11.10;99.90
4399;DHT22;2213;49.720;7.296;2023-05-07T04:20:08;11.10;99.90
4399;DHT22;2213;49.720;7.296;2023-05-07T04:22:38;11.10;99.90
4399;DHT22;2213;49.720;7.296;2023-05-07T04:25:09;11.00;99.90
4399;DHT22;2213;49.720;7.296;2023-05-07T04:27:37;11.10;99.90
4399;DHT22;2213;49.720;7.296;2023-05-07T04:30:08;11.00;99.90
4399;DHT22;2213;49.720;7.296;2023-05-07T04:32:37;11.00;99.90
4399;DHT22;2213;49.720;7.296;2023-05-07T04:35:07;11.00;99.90
4399;DHT22;2213;49.720;7.296;2023-05-07T04:37:38;11.00;99.90
4399;DHT22;2213;49.720;7.296;2023-05-07T04:40:07;11.00;99.90
4399;DHT22;2213;49.720;7.296;2023-05-07T04:42:37;11.00;99.90
4399;DHT22;2213;49.720;7.296;2023-05-07T04:45:06;11.00;99.90
4399;DHT22;2213;49.720;7.296;2023-05-07T04:47:36;11.00;99.90
4399;DHT22;2213;49.720;7.296;2023-05-07T04:50:05;11.10;99.90
4399;DHT22;2213;49.720;7.296;2023-05-07T04:52:37;11.00;99.90
4399;DHT22;2213;49.720;7.296;2023-05-07T04:55:08;11.00;99.90
4399;DHT22;2213;49.720;7.296;2023-05-07T04:57:37;11.10;99.90
4399;DHT22;2213;49.720;7.296;2023-05-07T05:00:07;11.10;99.90
4399;DHT22;2213;49.720;7.296;2023-05-07T05:02:39;11.10;99.90
4399;DHT22;2213;49.720;7.296;2023-05-07T05:05:08;11.20;99.90
4399;DHT22;2213;49.720;7.296;2023-05-07T05:07:38;11.20;99.90
4399;DHT22;2213;49.720;7.296;2023-05-07T05:10:08;11.20;99.90
4399;DHT22;2213;49.720;7.296;2023-05-07T05:12:37;11.30;99.90
4399;DHT22;2213;49.720;7.296;2023-05-07T05:15:07;11.30;99.90
4399;DHT22;2213;49.720;7.296;2023-05-07T05:17:37;11.40;99.90
4399;DHT22;2213;49.720;7.296;2023-05-07T05:20:08;11.40;99.90
4399;DHT22;2213;49.720;7.296;2023-05-07T05:22:41;11.50;99.90
4399;DHT22;2213;49.720;7.296;2023-05-07T05:25:10;11.50;99.90
4399;DHT22;2213;49.720;7.296;2023-05-07T05:27:39;11.60;99.90
4399;DHT22;2213;49.720;7.296;2023-05-07T05:30:08;11.60;99.90
4399;DHT22;2213;49.720;7.296;2023-05-07T05:32:37;11.70;99.90
4399;DHT22;2213;49.720;7.296;2023-05-07T05:35:06;11.70;99.90
4399;DHT22;2213;49.720;7.296;2023-05-07T05:37:35;11.70;99.90
4399;DHT22;2213;49.720;7.296;2023-05-07T05:40:06;11.70;99.90
4399;DHT22;2213;49.720;7.296;2023-05-07T05:42:36;11.80;99.90
4399;DHT22;2213;49.720;7.296;2023-05-07T05:45:06;11.80;99.90
4399;DHT22;2213;49.720;7.296;2023-05-07T05:47:36;11.90;99.90
4399;DHT22;2213;49.720;7.296;2023-05-07T05:50:06;11.90;99.90
4399;DHT22;2213;49.720;7.296;2023-05-07T05:52:36;11.90;99.90
4399;DHT22;2213;49.720;7.296;2023-05-07T05:55:07;12.00;99.90
4399;DHT22;2213;49.720;7.296;2023-05-07T05:57:38;12.00;99.90
4399;DHT22;2213;49.720;7.296;2023-05-07T06:00:08;12.10;99.90
4399;DHT22;2213;49.720;7.296;2023-05-07T06:02:38;12.10;99.90
4399;DHT22;2213;49.720;7.296;2023-05-07T06:05:10;12.20;99.90
4399;DHT22;2213;49.720;7.296;2023-05-07T06:07:44;12.20;99.90
4399;DHT22;2213;49.720;7.296;2023-05-07T06:10:16;12.20;99.90
4399;DHT22;2213;49.720;7.296;2023-05-07T06:12:46;12.30;99.90
4399;DHT22;2213;49.720;7.296;2023-05-07T06:15:16;12.30;99.90
4399;DHT22;2213;49.720;7.296;2023-05-07T06:17:46;12.40;99.90
4399;DHT22;2213;49.720;7.296;2023-05-07T06:20:17;12.40;99.90
4399;DHT22;2213;49.720;7.296;2023-05-07T06:22:49;12.40;99.90
4399;DHT22;2213;49.720;7.296;2023-05-07T06:25:19;12.50;99.90
4399;DHT22;2213;49.720;7.296;2023-05-07T06:27:49;12.50;99.90
4399;DHT22;2213;49.720;7.296;2023-05-07T06:30:24;12.60;99.90
4399;DHT22;2213;49.720;7.296;2023-05-07T06:32:53;12.60;99.90
4399;DHT22;2213;49.720;7.296;2023-05-07T06:35:22;12.60;99.90
4399;DHT22;2213;49.720;7.296;2023-05-07T06:37:51;12.70;99.90
4399;DHT22;2213;49.720;7.296;2023-05-07T06:40:21;12.70;99.90
4399;DHT22;2213;49.720;7.296;2023-05-07T06:42:51;12.80;99.90
4399;DHT22;2213;49.720;7.296;2023-05-07T06:45:20;12.80;99.90
4399;DHT22;2213;49.720;7.296;2023-05-07T06:47:49;12.90;99.90
4399;DHT22;2213;49.720;7.296;2023-05-07T06:50:19;13.00;99.90
4399;DHT22;2213;49.720;7.296;2023-05-07T06:52:48;13.00;99.90
4399;DHT22;2213;49.720;7.296;2023-05-07T06:55:17;13.10;99.90
4399;DHT22;2213;49.720;7.296;2023-05-07T06:57:47;13.10;99.90
4399;DHT22;2213;49.720;7.296;2023-05-07T07:00:16;13.20;99.90
4399;DHT22;2213;49.720;7.296;2023-05-07T07:02:45;13.30;99.90
4399;DHT22;2213;49.720;7.296;2023-05-07T07:05:14;13.30;99.90
4399;DHT22;2213;49.720;7.296;2023-05-07T07:07:43;13.30;99.90
4399;DHT22;2213;49.720;7.296;2023-05-07T07:10:11;13.40;99.90
4399;DHT22;2213;49.720;7.296;2023-05-07T07:12:40;13.30;99.90
4399;DHT22;2213;49.720;7.296;2023-05-07T07:15:11;13.50;99.90
4399;DHT22;2213;49.720;7.296;2023-05-07T07:17:39;13.60;99.90
4399;DHT22;2213;49.720;7.296;2023-05-07T07:20:09;13.60;99.90
4399;DHT22;2213;49.720;7.296;2023-05-07T07:22:38;13.70;99.90
4399;DHT22;2213;49.720;7.296;2023-05-07T07:25:07;13.80;99.90
4399;DHT22;2213;49.720;7.296;2023-05-07T07:27:37;13.80;99.90
4399;DHT22;2213;49.720;7.296;2023-05-07T07:30:10;14.00;99.90
4399;DHT22;2213;49.720;7.296;2023-05-07T07:32:39;14.10;99.90
4399;DHT22;2213;49.720;7.296;2023-05-07T07:35:08;14.30;99.90
4399;DHT22;2213;49.720;7.296;2023-05-07T07:37:37;14.40;99.90
4399;DHT22;2213;49.720;7.296;2023-05-07T07:40:07;14.40;99.90
4399;DHT22;2213;49.720;7.296;2023-05-07T07:42:38;14.60;99.90
4399;DHT22;2213;49.720;7.296;2023-05-07T07:45:08;14.70;99.90
4399;DHT22;2213;49.720;7.296;2023-05-07T07:47:39;14.60;99.90
4399;DHT22;2213;49.720;7.296;2023-05-07T07:50:08;14.80;99.90
4399;DHT22;2213;49.720;7.296;2023-05-07T07:52:51;14.80;99.90
4399;DHT22;2213;49.720;7.296;2023-05-07T07:55:20;14.90;99.90
4399;DHT22;2213;49.720;7.296;2023-05-07T07:57:51;14.90;99.90
4399;DHT22;2213;49.720;7.296;2023-05-07T08:00:21;15.00;99.90
4399;DHT22;2213;49.720;7.296;2023-05-07T08:02:49;15.00;99.90
4399;DHT22;2213;49.720;7.296;2023-05-07T08:05:21;15.10;99.90
4399;DHT22;2213;49.720;7.296;2023-05-07T08:07:50;15.10;99.90
4399;DHT22;2213;49.720;7.296;2023-05-07T08:10:20;15.20;99.90
4399;DHT22;2213;49.720;7.296;2023-05-07T08:12:50;15.40;99.90
4399;DHT22;2213;49.720;7.296;2023-05-07T08:15:21;15.40;99.90
4399;DHT22;2213;49.720;7.296;2023-05-07T08:17:49;15.40;99.90
4399;DHT22;2213;49.720;7.296;2023-05-07T08:20:18;15.40;99.90
4399;DHT22;2213;49.720;7.296;2023-05-07T08:22:48;15.40;99.90
4399;DHT22;2213;49.720;7.296;2023-05-07T08:25:16;15.50;99.90
4399;DHT22;2213;49.720;7.296;2023-05-07T08:27:45;15.70;99.90
4399;DHT22;2213;49.720;7.296;2023-05-07T08:30:15;15.70;99.90
4399;DHT22;2213;49.720;7.296;2023-05-07T08:32:47;15.70;99.90
4399;DHT22;2213;49.720;7.296;2023-05-07T08:35:16;15.80;99.90
4399;DHT22;2213;49.720;7.296;2023-05-07T08:37:45;15.80;99.90
4399;DHT22;2213;49.720;7.296;2023-05-07T08:40:13;15.80;99.90
4399;DHT22;2213;49.720;7.296;2023-05-07T08:42:44;15.90;99.90
4399;DHT22;2213;49.720;7.296;2023-05-07T08:45:14;15.90;99.90
4399;DHT22;2213;49.720;7.296;2023-05-07T08:47:48;16.00;99.90
4399;DHT22;2213;49.720;7.296;2023-05-07T08:50:20;16.10;99.90
4399;DHT22;2213;49.720;7.296;2023-05-07T08:52:49;16.20;99.90
4399;DHT22;2213;49.720;7.296;2023-05-07T08:55:17;16.20;99.90
4399;DHT22;2213;49.720;7.296;2023-05-07T08:57:47;16.40;99.90
4399;DHT22;2213;49.720;7.296;2023-05-07T09:00:19;16.40;99.90
4399;DHT22;2213;49.720;7.296;2023-05-07T09:02:51;16.50;99.90
4399;DHT22;2213;49.720;7.296;2023-05-07T09:05:20;16.50;99.90
4399;DHT22;2213;49.720;7.296;2023-05-07T09:07:49;16.60;99.90
4399;DHT22;2213;49.720;7.296;2023-05-07T09:10:21;16.60;99.90
4399;DHT22;2213;49.720;7.296;2023-05-07T09:12:50;16.60;99.90
4399;DHT22;2213;49.720;7.296;2023-05-07T09:15:20;16.70;99.90
4399;DHT22;2213;49.720;7.296;2023-05-07T09:17:50;16.70;99.90
4399;DHT22;2213;49.720;7.296;2023-05-07T09:20:19;16.90;99.90
4399;DHT22;2213;49.720;7.296;2023-05-07T09:22:49;16.80;99.90
4399;DHT22;2213;49.720;7.296;2023-05-07T09:25:28;16.80;99.90
4399;DHT22;2213;49.720;7.296;2023-05-07T09:27:57;16.90;99.90
4399;DHT22;2213;49.720;7.296;2023-05-07T09:30:28;17.00;99.90
4399;DHT22;2213;49.720;7.296;2023-05-07T09:33:00;17.20;99.90
4399;DHT22;2213;49.720;7.296;2023-05-07T09:35:30;17.20;99.90
4399;DHT22;2213;49.720;7.296;2023-05-07T09:38:00;17.10;99.90
4399;DHT22;2213;49.720;7.296;2023-05-07T09:40:31;17.10;99.90
4399;DHT22;2213;49.720;7.296;2023-05-07T09:43:09;17.20;99.90
4399;DHT22;2213;49.720;7.296;2023-05-07T09:45:38;17.40;99.90
4399;DHT22;2213;49.720;7.296;2023-05-07T09:48:09;17.40;99.90
4399;DHT22;2213;49.720;7.296;2023-05-07T09:50:46;17.60;99.90
4399;DHT22;2213;49.720;7.296;2023-05-07T09:53:19;17.70;99.90
4399;DHT22;2213;49.720;7.296;2023-05-07T09:55:49;17.70;99.90
4399;DHT22;2213;49.720;7.296;2023-05-07T09:58:19;17.70;99.90
4399;DHT22;2213;49.720;7.296;2023-05-07T10:00:50;17.70;99.90
4399;DHT22;2213;49.720;7.296;2023-05-07T10:03:22;17.80;99.90
4399;DHT22;2213;49.720;7.296;2023-05-07T10:05:53;17.90;99.90
4399;DHT22;2213;49.720;7.296;2023-05-07T10:08:23;18.00;99.90
4399;DHT22;2213;49.720;7.296;2023-05-07T10:10:52;18.00;99.90
4399;DHT22;2213;49.720;7.296;2023-05-07T10:13:21;18.10;99.90
4399;DHT22;2213;49.720;7.296;2023-05-07T10:15:50;18.30;99.90
4399;DHT22;2213;49.720;7.296;2023-05-07T10:18:21;18.20;99.90
4399;DHT22;2213;49.720;7.296;2023-05-07T10:21:07;18.30;99.90
4399;DHT22;2213;49.720;7.296;2023-05-07T10:23:45;18.40;99.90
4399;DHT22;2213;49.720;7.296;2023-05-07T10:26:19;18.50;99.90
4399;DHT22;2213;49.720;7.296;2023-05-07T10:28:54;18.50;99.90
4399;DHT22;2213;49.720;7.296;2023-05-07T10:31:57;18.50;99.90
4399;DHT22;2213;49.720;7.296;2023-05-07T10:34:42;18.60;99.90
4399;DHT22;2213;49.720;7.296;2023-05-07T10:37:13;18.60;99.90
4399;DHT22;2213;49.720;7.296;2023-05-07T10:39:43;18.60;99.90
4399;DHT22;2213;49.720;7.296;2023-05-07T10:42:12;18.70;99.90
4399;DHT22;2213;49.720;7.296;2023-05-07T10:44:41;18.70;99.90
4399;DHT22;2213;49.720;7.296;2023-05-07T10:47:11;18.80;99.90
4399;DHT22;2213;49.720;7.296;2023-05-07T10:53:23;18.80;99.90
4399;DHT22;2213;49.720;7.296;2023-05-07T10:56:24;18.80;99.90
4399;DHT22;2213;49.720;7.296;2023-05-07T11:01:59;18.80;99.90
4399;DHT22;2213;49.720;7.296;2023-05-07T11:04:30;18.90;99.90
4399;DHT22;2213;49.720;7.296;2023-05-07T11:07:30;18.90;99.90
4399;DHT22;2213;49.720;7.296;2023-05-07T11:10:04;19.00;99.90
4399;DHT22;2213;49.720;7.296;2023-05-07T11:13:01;19.00;99.90
4399;DHT22;2213;49.720;7.296;2023-05-07T11:18:21;19.20;99.90
4399;DHT22;2213;49.720;7.296;2023-05-07T11:20:54;19.20;99.90
4399;DHT22;2213;49.720;7.296;2023-05-07T11:26:46;19.20;99.90
4399;DHT22;2213;49.720;7.296;2023-05-07T11:29:17;19.40;99.90
4399;DHT22;2213;49.720;7.296;2023-05-07T11:31:50;19.50;99.90
4399;DHT22;2213;49.720;7.296;2023-05-07T11:34:22;19.50;99.90
4399;DHT22;2213;49.720;7.296;2023-05-07T11:36:52;19.50;99.90
4399;DHT22;2213;49.720;7.296;2023-05-07T11:39:26;19.50;99.90
4399;DHT22;2213;49.720;7.296;2023-05-07T11:41:57;19.60;99.90
4399;DHT22;2213;49.720;7.296;2023-05-07T11:44:27;19.80;99.90
4399;DHT22;2213;49.720;7.296;2023-05-07T11:47:11;19.80;99.90
4399;DHT22;2213;49.720;7.296;2023-05-07T11:49:47;19.90;99.90
4399;DHT22;2213;49.720;7.296;2023-05-07T11:52:17;19.80;99.90
4399;DHT22;2213;49.720;7.296;2023-05-07T11:54:50;19.90;99.90
4399;DHT22;2213;49.720;7.296;2023-05-07T11:57:19;19.90;99.90
4399;DHT22;2213;49.720;7.296;2023-05-07T11:59:48;20.00;99.90
4399;DHT22;2213;49.720;7.296;2023-05-07T12:02:21;20.10;99.90
4399;DHT22;2213;49.720;7.296;2023-05-07T12:04:52;20.00;99.90
4399;DHT22;2213;49.720;7.296;2023-05-07T12:07:23;20.00;99.90
4399;DHT22;2213;49.720;7.296;2023-05-07T12:09:54;20.00;99.90
4399;DHT22;2213;49.720;7.296;2023-05-07T12:12:22;20.20;99.90
4399;DHT22;2213;49.720;7.296;2023-05-07T12:14:50;20.30;99.90
4399;DHT22;2213;49.720;7.296;2023-05-07T12:17:20;20.30;99.90
4399;DHT22;2213;49.720;7.296;2023-05-07T12:19:49;20.40;99.90
4399;DHT22;2213;49.720;7.296;2023-05-07T12:22:19;20.60;99.90
4399;DHT22;2213;49.720;7.296;2023-05-07T12:24:49;20.70;99.90
4399;DHT22;2213;49.720;7.296;2023-05-07T12:27:19;20.60;99.90
4399;DHT22;2213;49.720;7.296;2023-05-07T12:29:48;20.70;99.90
4399;DHT22;2213;49.720;7.296;2023-05-07T12:32:19;20.80;99.90
4399;DHT22;2213;49.720;7.296;2023-05-07T12:34:50;20.90;99.90
4399;DHT22;2213;49.720;7.296;2023-05-07T12:37:23;20.80;99.90
4399;DHT22;2213;49.720;7.296;2023-05-07T12:40:07;20.80;99.90
4399;DHT22;2213;49.720;7.296;2023-05-07T12:42:40;20.80;99.90
4399;DHT22;2213;49.720;7.296;2023-05-07T12:47:39;21.00;99.90
4399;DHT22;2213;49.720;7.296;2023-05-07T12:50:13;21.10;99.90
4399;DHT22;2213;49.720;7.296;2023-05-07T12:52:43;20.90;99.90
4399;DHT22;2213;49.720;7.296;2023-05-07T12:55:14;21.10;99.90
4399;DHT22;2213;49.720;7.296;2023-05-07T12:57:48;21.20;99.90
4399;DHT22;2213;49.720;7.296;2023-05-07T13:00:31;21.20;99.90
4399;DHT22;2213;49.720;7.296;2023-05-07T13:03:00;21.10;99.90
4399;DHT22;2213;49.720;7.296;2023-05-07T13:05:30;21.10;99.90
4399;DHT22;2213;49.720;7.296;2023-05-07T13:07:58;21.30;99.90
4399;DHT22;2213;49.720;7.296;2023-05-07T13:10:28;21.20;99.90
4399;DHT22;2213;49.720;7.296;2023-05-07T13:12:58;21.30;99.90
4399;DHT22;2213;49.720;7.296;2023-05-07T13:15:27;21.20;99.90
4399;DHT22;2213;49.720;7.296;2023-05-07T13:17:55;21.30;99.90
4399;DHT22;2213;49.720;7.296;2023-05-07T13:20:24;21.30;99.90
4399;DHT22;2213;49.720;7.296;2023-05-07T13:22:53;21.40;99.90
4399;DHT22;2213;49.720;7.296;2023-05-07T13:25:21;21.40;99.90
4399;DHT22;2213;49.720;7.296;2023-05-07T13:27:50;21.40;99.90
4399;DHT22;2213;49.720;7.296;2023-05-07T13:30:34;21.40;99.90
4399;DHT22;2213;49.720;7.296;2023-05-07T13:33:02;21.40;99.90
4399;DHT22;2213;49.720;7.296;2023-05-07T13:35:31;21.40;99.90
4399;DHT22;2213;49.720;7.296;2023-05-07T13:38:00;21.40;99.90
4399;DHT22;2213;49.720;7.296;2023-05-07T13:40:28;21.40;99.90
4399;DHT22;2213;49.720;7.296;2023-05-07T13:42:59;21.50;99.90
4399;DHT22;2213;49.720;7.296;2023-05-07T13:45:29;21.50;99.90
4399;DHT22;2213;49.720;7.296;2023-05-07T13:47:59;21.50;99.90
4399;DHT22;2213;49.720;7.296;2023-05-07T13:50:28;21.60;99.90
4399;DHT22;2213;49.720;7.296;2023-05-07T13:52:57;21.60;99.90
4399;DHT22;2213;49.720;7.296;2023-05-07T13:55:27;21.60;99.90
4399;DHT22;2213;49.720;7.296;2023-05-07T13:57:58;21.60;99.90
4399;DHT22;2213;49.720;7.296;2023-05-07T14:00:32;21.60;99.90
4399;DHT22;2213;49.720;7.296;2023-05-07T14:03:02;21.50;99.90
4399;DHT22;2213;49.720;7.296;2023-05-07T14:05:32;21.50;99.90
4399;DHT22;2213;49.720;7.296;2023-05-07T14:08:00;21.40;99.90
4399;DHT22;2213;49.720;7.296;2023-05-07T14:10:30;21.40;99.90
4399;DHT22;2213;49.720;7.296;2023-05-07T14:13:01;21.50;99.90
4399;DHT22;2213;49.720;7.296;2023-05-07T14:15:30;21.40;99.90
4399;DHT22;2213;49.720;7.296;2023-05-07T14:17:59;21.30;99.90
4399;DHT22;2213;49.720;7.296;2023-05-07T14:20:30;21.30;99.90
4399;DHT22;2213;49.720;7.296;2023-05-07T14:22:59;21.20;99.90
4399;DHT22;2213;49.720;7.296;2023-05-07T14:25:28;21.20;99.90
4399;DHT22;2213;49.720;7.296;2023-05-07T14:27:56;21.10;99.90
4399;DHT22;2213;49.720;7.296;2023-05-07T14:30:25;21.10;99.90
4399;DHT22;2213;49.720;7.296;2023-05-07T14:32:56;21.00;99.90
4399;DHT22;2213;49.720;7.296;2023-05-07T14:35:26;20.90;99.90
4399;DHT22;2213;49.720;7.296;2023-05-07T14:37:56;20.80;99.90
4399;DHT22;2213;49.720;7.296;2023-05-07T14:40:25;20.70;99.90
4399;DHT22;2213;49.720;7.296;2023-05-07T14:42:53;20.70;99.90
4399;DHT22;2213;49.720;7.296;2023-05-07T14:45:23;20.50;99.90
4399;DHT22;2213;49.720;7.296;2023-05-07T14:47:53;20.40;99.90
4399;DHT22;2213;49.720;7.296;2023-05-07T14:50:22;20.40;99.90
4399;DHT22;2213;49.720;7.296;2023-05-07T14:52:52;20.30;99.90
4399;DHT22;2213;49.720;7.296;2023-05-07T14:55:21;20.10;99.90
4399;DHT22;2213;49.720;7.296;2023-05-07T14:57:50;19.90;99.90
4399;DHT22;2213;49.720;7.296;2023-05-07T15:00:20;19.70;99.90
4399;DHT22;2213;49.720;7.296;2023-05-07T15:02:48;19.60;99.90
4399;DHT22;2213;49.720;7.296;2023-05-07T15:05:17;19.40;99.90
4399;DHT22;2213;49.720;7.296;2023-05-07T15:07:47;19.10;99.90
4399;DHT22;2213;49.720;7.296;2023-05-07T15:10:18;19.10;99.90
4399;DHT22;2213;49.720;7.296;2023-05-07T15:12:47;19.00;99.90
4399;DHT22;2213;49.720;7.296;2023-05-07T15:15:15;18.90;99.90
4399;DHT22;2213;49.720;7.296;2023-05-07T15:17:44;18.70;99.90
4399;DHT22;2213;49.720;7.296;2023-05-07T15:20:13;18.50;99.90
4399;DHT22;2213;49.720;7.296;2023-05-07T15:22:41;18.40;99.90
4399;DHT22;2213;49.720;7.296;2023-05-07T15:25:10;18.30;99.90
4399;DHT22;2213;49.720;7.296;2023-05-07T15:27:41;18.30;99.90
4399;DHT22;2213;49.720;7.296;2023-05-07T15:30:10;18.20;99.90
4399;DHT22;2213;49.720;7.296;2023-05-07T15:32:41;18.10;99.90
4399;DHT22;2213;49.720;7.296;2023-05-07T15:35:09;18.10;99.90
4399;DHT22;2213;49.720;7.296;2023-05-07T15:37:38;17.90;99.90
4399;DHT22;2213;49.720;7.296;2023-05-07T15:40:08;17.90;99.90
4399;DHT22;2213;49.720;7.296;2023-05-07T15:42:37;17.70;99.90
4399;DHT22;2213;49.720;7.296;2023-05-07T15:45:11;17.60;99.90
4399;DHT22;2213;49.720;7.296;2023-05-07T15:47:40;17.50;99.90
4399;DHT22;2213;49.720;7.296;2023-05-07T15:50:09;17.40;99.90
4399;DHT22;2213;49.720;7.296;2023-05-07T15:52:38;17.40;99.90
4399;DHT22;2213;49.720;7.296;2023-05-07T15:55:10;17.20;99.90
4399;DHT22;2213;49.720;7.296;2023-05-07T15:57:39;17.20;99.90
4399;DHT22;2213;49.720;7.296;2023-05-07T16:00:11;17.20;99.90
4399;DHT22;2213;49.720;7.296;2023-05-07T16:02:43;17.10;99.90
4399;DHT22;2213;49.720;7.296;2023-05-07T16:05:13;17.10;99.90
4399;DHT22;2213;49.720;7.296;2023-05-07T16:07:42;17.00;99.90
4399;DHT22;2213;49.720;7.296;2023-05-07T16:10:11;17.00;99.90
4399;DHT22;2213;49.720;7.296;2023-05-07T16:12:40;17.00;99.90
4399;DHT22;2213;49.720;7.296;2023-05-07T16:15:11;16.90;99.90
4399;DHT22;2213;49.720;7.296;2023-05-07T16:17:40;16.90;99.90
4399;DHT22;2213;49.720;7.296;2023-05-07T16:20:09;16.90;99.90
4399;DHT22;2213;49.720;7.296;2023-05-07T16:22:39;16.80;99.90
4399;DHT22;2213;49.720;7.296;2023-05-07T16:25:08;16.80;99.90
4399;DHT22;2213;49.720;7.296;2023-05-07T16:27:37;16.70;99.90
4399;DHT22;2213;49.720;7.296;2023-05-07T16:30:11;16.70;99.90
4399;DHT22;2213;49.720;7.296;2023-05-07T16:32:42;16.70;99.90
4399;DHT22;2213;49.720;7.296;2023-05-07T16:35:11;16.70;99.90
4399;DHT22;2213;49.720;7.296;2023-05-07T16:37:40;16.60;99.90